sensor_id;sensor_type;location;lat;lon;timestamp;pressure;altitude;pressure_sealevel;temperature;humidity
45541;BME280;31265;49.680;8.608;2022-11-27T00:01:57;101897.38;;;2.99;100.00
45541;BME280;31265;49.680;8.608;2022-11-27T00:04:28;101886.31;;;2.93;100.00
45541;BME280;31265;49.680;8.608;2022-11-27T00:06:56;101881.13;;;2.95;100.00
45541;BME280;31265;49.680;8.608;2022-11-27T00:09:29;101876.00;;;2.88;100.00
45541;BME280;31265;49.680;8.608;2022-11-27T00:12:00;101864.84;;;2.77;100.00
45541;BME280;31265;49.680;8.608;2022-11-27T00:14:30;101862.72;;;2.72;100.00
45541;BME280;31265;49.680;8.608;2022-11-27T00:16:59;101852.91;;;2.65;100.00
45541;BME280;31265;49.680;8.608;2022-11-27T00:19:28;101848.06;;;2.60;100.00
45541;BME280;31265;49.680;8.608;2022-11-27T00:22:00;101844.66;;;2.50;100.00
45541;BME280;31265;49.680;8.608;2022-11-27T00:24:29;101850.00;;;2.45;100.00
45541;BME280;31265;49.680;8.608;2022-11-27T00:26:57;101838.59;;;2.46;100.00
45541;BME280;31265;49.680;8.608;2022-11-27T00:29:27;101830.91;;;2.35;100.00
45541;BME280;31265;49.680;8.608;2022-11-27T00:31:57;101823.16;;;2.34;100.00
45541;BME280;31265;49.680;8.608;2022-11-27T00:34:29;101819.41;;;2.22;100.00
45541;BME280;31265;49.680;8.608;2022-11-27T00:36:57;101821.00;;;2.14;100.00
45541;BME280;31265;49.680;8.608;2022-11-27T00:39:25;101811.41;;;2.19;100.00
45541;BME280;31265;49.680;8.608;2022-11-27T00:41:54;101798.31;;;2.38;100.00
45541;BME280;31265;49.680;8.608;2022-11-27T00:44:22;101804.84;;;2.40;100.00
45541;BME280;31265;49.680;8.608;2022-11-27T00:46:50;101802.28;;;2.36;100.00
45541;BME280;31265;49.680;8.608;2022-11-27T00:49:19;101797.81;;;2.24;100.00
45541;BME280;31265;49.680;8.608;2022-11-27T00:51:49;101798.00;;;2.21;100.00
45541;BME280;31265;49.680;8.608;2022-11-27T00:54:19;101796.56;;;2.10;100.00
45541;BME280;31265;49.680;8.608;2022-11-27T00:56:49;101795.66;;;2.04;100.00
45541;BME280;31265;49.680;8.608;2022-11-27T00:59:19;101800.75;;;1.97;100.00
45541;BME280;31265;49.680;8.608;2022-11-27T01:01:47;101806.56;;;1.89;100.00
45541;BME280;31265;49.680;8.608;2022-11-27T01:04:17;101801.28;;;1.86;100.00
45541;BME280;31265;49.680;8.608;2022-11-27T01:06:46;101804.66;;;1.81;100.00
45541;BME280;31265;49.680;8.608;2022-11-27T01:09:16;101803.75;;;1.75;100.00
45541;BME280;31265;49.680;8.608;2022-11-27T01:11:47;101799.84;;;1.66;100.00
45541;BME280;31265;49.680;8.608;2022-11-27T01:14:17;101805.47;;;1.63;100.00
45541;BME280;31265;49.680;8.608;2022-11-27T01:16:47;101806.75;;;1.53;100.00
45541;BME280;31265;49.680;8.608;2022-11-27T01:19:16;101809.19;;;1.50;100.00
45541;BME280;31265;49.680;8.608;2022-11-27T01:21:45;101804.94;;;1.49;100.00
45541;BME280;31265;49.680;8.608;2022-11-27T01:24:16;101810.75;;;1.42;100.00
45541;BME280;31265;49.680;8.608;2022-11-27T01:26:45;101799.19;;;1.38;100.00
45541;BME280;31265;49.680;8.608;2022-11-27T01:29:13;101799.81;;;1.33;100.00
45541;BME280;31265;49.680;8.608;2022-11-27T01:31:42;101797.72;;;1.28;100.00
45541;BME280;31265;49.680;8.608;2022-11-27T01:34:14;101798.19;;;1.26;100.00
45541;BME280;31265;49.680;8.608;2022-11-27T01:36:43;101794.41;;;1.24;100.00
45541;BME280;31265;49.680;8.608;2022-11-27T01:39:16;101805.50;;;1.20;100.00
45541;BME280;31265;49.680;8.608;2022-11-27T01:41:46;101799.59;;;1.22;100.00
45541;BME280;31265;49.680;8.608;2022-11-27T01:44:52;101806.44;;;1.17;100.00
45541;BME280;31265;49.680;8.608;2022-11-27T01:47:27;101805.53;;;1.11;100.00
45541;BME280;31265;49.680;8.608;2022-11-27T01:50:05;101794.94;;;1.04;100.00
45541;BME280;31265;49.680;8.608;2022-11-27T01:52:37;101799.03;;;0.99;100.00
45541;BME280;31265;49.680;8.608;2022-11-27T01:55:13;101793.13;;;0.92;100.00
45541;BME280;31265;49.680;8.608;2022-11-27T01:57:48;101792.22;;;0.85;100.00
45541;BME280;31265;49.680;8.608;2022-11-27T02:00:19;101788.00;;;0.84;100.00
45541;BME280;31265;49.680;8.608;2022-11-27T02:02:48;101788.75;;;0.85;100.00
45541;BME280;31265;49.680;8.608;2022-11-27T02:05:19;101788.00;;;0.84;100.00
45541;BME280;31265;49.680;8.608;2022-11-27T02:07:49;101795.88;;;0.82;100.00
45541;BME280;31265;49.680;8.608;2022-11-27T02:10:23;101787.56;;;0.77;100.00
45541;BME280;31265;49.680;8.608;2022-11-27T02:12:59;101791.34;;;0.70;100.00
45541;BME280;31265;49.680;8.608;2022-11-27T02:15:34;101787.25;;;0.66;100.00
45541;BME280;31265;49.680;8.608;2022-11-27T02:18:12;101783.91;;;0.61;100.00
45541;BME280;31265;49.680;8.608;2022-11-27T02:20:50;101778.31;;;0.56;100.00
45541;BME280;31265;49.680;8.608;2022-11-27T02:24:08;101775.75;;;0.52;100.00
45541;BME280;31265;49.680;8.608;2022-11-27T02:29:58;101758.28;;;0.50;100.00
45541;BME280;31265;49.680;8.608;2022-11-27T02:32:33;101769.97;;;0.50;100.00
45541;BME280;31265;49.680;8.608;2022-11-27T02:35:08;101768.00;;;0.51;100.00
45541;BME280;31265;49.680;8.608;2022-11-27T02:37:45;101781.94;;;0.53;100.00
45541;BME280;31265;49.680;8.608;2022-11-27T02:40:19;101772.09;;;0.55;100.00
45541;BME280;31265;49.680;8.608;2022-11-27T02:42:52;101780.72;;;0.54;100.00
45541;BME280;31265;49.680;8.608;2022-11-27T02:45:31;101791.97;;;0.47;100.00
45541;BME280;31265;49.680;8.608;2022-11-27T02:48:02;101785.59;;;0.50;100.00
45541;BME280;31265;49.680;8.608;2022-11-27T02:50:34;101786.34;;;0.50;100.00
45541;BME280;31265;49.680;8.608;2022-11-27T02:53:08;101782.69;;;0.44;100.00
45541;BME280;31265;49.680;8.608;2022-11-27T02:55:39;101784.69;;;0.34;100.00
45541;BME280;31265;49.680;8.608;2022-11-27T02:58:13;101764.81;;;0.25;100.00
45541;BME280;31265;49.680;8.608;2022-11-27T03:00:45;101765.41;;;0.19;100.00
45541;BME280;31265;49.680;8.608;2022-11-27T03:03:17;101756.31;;;0.13;100.00
45541;BME280;31265;49.680;8.608;2022-11-27T03:05:50;101753.72;;;0.10;100.00
45541;BME280;31265;49.680;8.608;2022-11-27T03:08:24;101750.72;;;0.08;100.00
45541;BME280;31265;49.680;8.608;2022-11-27T03:11:03;101735.22;;;0.05;100.00
45541;BME280;31265;49.680;8.608;2022-11-27T03:13:35;101744.63;;;0.04;100.00
45541;BME280;31265;49.680;8.608;2022-11-27T03:16:10;101739.34;;;0.00;100.00
45541;BME280;31265;49.680;8.608;2022-11-27T03:18:42;101737.06;;;-0.02;100.00
45541;BME280;31265;49.680;8.608;2022-11-27T03:21:17;101742.50;;;-0.02;100.00
45541;BME280;31265;49.680;8.608;2022-11-27T03:23:51;101736.31;;;-0.02;100.00
45541;BME280;31265;49.680;8.608;2022-11-27T03:26:22;101733.09;;;-0.01;100.00
45541;BME280;31265;49.680;8.608;2022-11-27T03:28:54;101732.34;;;-0.01;100.00
45541;BME280;31265;49.680;8.608;2022-11-27T03:31:27;101721.59;;;-0.05;100.00
45541;BME280;31265;49.680;8.608;2022-11-27T03:33:55;101711.56;;;-0.08;100.00
45541;BME280;31265;49.680;8.608;2022-11-27T03:36:25;101710.81;;;0.01;100.00
45541;BME280;31265;49.680;8.608;2022-11-27T03:38:53;101715.84;;;0.03;100.00
45541;BME280;31265;49.680;8.608;2022-11-27T03:41:26;101725.22;;;0.02;100.00
45541;BME280;31265;49.680;8.608;2022-11-27T03:44:05;101728.56;;;0.06;100.00
45541;BME280;31265;49.680;8.608;2022-11-27T03:46:47;101728.88;;;0.08;100.00
45541;BME280;31265;49.680;8.608;2022-11-27T03:49:27;101730.38;;;0.09;100.00
45541;BME280;31265;49.680;8.608;2022-11-27T03:52:06;101728.88;;;0.08;100.00
45541;BME280;31265;49.680;8.608;2022-11-27T03:54:42;101736.75;;;0.06;100.00
45541;BME280;31265;49.680;8.608;2022-11-27T03:57:20;101729.31;;;0.06;100.00
45541;BME280;31265;49.680;8.608;2022-11-27T03:59:51;101716.59;;;0.03;100.00
45541;BME280;31265;49.680;8.608;2022-11-27T04:02:29;101711.44;;;-0.04;100.00
45541;BME280;31265;49.680;8.608;2022-11-27T04:05:00;101711.28;;;-0.10;100.00
45541;BME280;31265;49.680;8.608;2022-11-27T04:07:29;101704.00;;;-0.04;100.00
45541;BME280;31265;49.680;8.608;2022-11-27T04:09:58;101698.09;;;-0.02;100.00
45541;BME280;31265;49.680;8.608;2022-11-27T04:12:28;101689.75;;;-0.08;100.00
45541;BME280;31265;49.680;8.608;2022-11-27T04:14:56;101692.47;;;-0.08;100.00
45541;BME280;31265;49.680;8.608;2022-11-27T04:17:30;101692.94;;;-0.09;100.00
45541;BME280;31265;49.680;8.608;2022-11-27T04:20:00;101689.44;;;-0.10;100.00
45541;BME280;31265;49.680;8.608;2022-11-27T04:22:29;101695.97;;;-0.07;100.00
45541;BME280;31265;49.680;8.608;2022-11-27T04:24:57;101708.56;;;-0.10;100.00
45541;BME280;31265;49.680;8.608;2022-11-27T04:27:26;101714.91;;;-0.13;100.00
45541;BME280;31265;49.680;8.608;2022-11-27T04:29:55;101708.06;;;-0.17;100.00
45541;BME280;31265;49.680;8.608;2022-11-27T04:32:24;101702.94;;;-0.25;100.00
45541;BME280;31265;49.680;8.608;2022-11-27T04:34:55;101698.53;;;-0.31;100.00
45541;BME280;31265;49.680;8.608;2022-11-27T04:37:24;101695.19;;;-0.35;100.00
45541;BME280;31265;49.680;8.608;2022-11-27T04:39:52;101696.09;;;-0.38;100.00
45541;BME280;31265;49.680;8.608;2022-11-27T04:42:22;101693.66;;;-0.46;100.00
45541;BME280;31265;49.680;8.608;2022-11-27T04:44:55;101682.44;;;-0.48;100.00
45541;BME280;31265;49.680;8.608;2022-11-27T04:47:23;101692.28;;;-0.50;100.00
45541;BME280;31265;49.680;8.608;2022-11-27T04:49:54;101693.03;;;-0.50;100.00
45541;BME280;31265;49.680;8.608;2022-11-27T04:52:23;101691.97;;;-0.52;100.00
45541;BME280;31265;49.680;8.608;2022-11-27T04:54:54;101686.03;;;-0.60;100.00
45541;BME280;31265;49.680;8.608;2022-11-27T04:57:29;101689.56;;;-0.41;100.00
45541;BME280;31265;49.680;8.608;2022-11-27T04:59:57;101684.72;;;-0.46;100.00
45541;BME280;31265;49.680;8.608;2022-11-27T05:02:26;101686.22;;;-0.54;100.00
45541;BME280;31265;49.680;8.608;2022-11-27T05:04:58;101685.44;;;-0.55;100.00
45541;BME280;31265;49.680;8.608;2022-11-27T05:07:28;101683.31;;;-0.60;100.00
45541;BME280;31265;49.680;8.608;2022-11-27T05:09:56;101680.28;;;-0.62;100.00
45541;BME280;31265;49.680;8.608;2022-11-27T05:12:27;101677.25;;;-0.64;100.00
45541;BME280;31265;49.680;8.608;2022-11-27T05:14:59;101675.13;;;-0.69;100.00
45541;BME280;31265;49.680;8.608;2022-11-27T05:17:30;101687.22;;;-0.70;100.00
45541;BME280;31265;49.680;8.608;2022-11-27T05:20:00;101682.09;;;-0.68;100.00
45541;BME280;31265;49.680;8.608;2022-11-27T05:22:30;101683.91;;;-0.65;100.00
45541;BME280;31265;49.680;8.608;2022-11-27T05:25:00;101686.03;;;-0.60;100.00
45541;BME280;31265;49.680;8.608;2022-11-27T05:27:29;101687.56;;;-0.59;100.00
45541;BME280;31265;49.680;8.608;2022-11-27T05:29:59;101683.94;;;-0.56;100.00
45541;BME280;31265;49.680;8.608;2022-11-27T05:32:27;101672.28;;;-0.47;100.00
45541;BME280;31265;49.680;8.608;2022-11-27T05:34:59;101674.72;;;-0.40;100.00
45541;BME280;31265;49.680;8.608;2022-11-27T05:37:28;101680.63;;;-0.32;100.00
45541;BME280;31265;49.680;8.608;2022-11-27T05:39:57;101686.41;;;-0.21;100.00
45541;BME280;31265;49.680;8.608;2022-11-27T05:42:25;101694.13;;;-0.10;100.00
45541;BME280;31265;49.680;8.608;2022-11-27T05:44:54;101699.00;;;0.04;100.00
45541;BME280;31265;49.680;8.608;2022-11-27T05:47:25;101699.44;;;0.21;100.00
45541;BME280;31265;49.680;8.608;2022-11-27T05:49:54;101698.22;;;0.31;100.00
45541;BME280;31265;49.680;8.608;2022-11-27T05:52:24;101695.63;;;0.37;100.00
45541;BME280;31265;49.680;8.608;2022-11-27T05:54:55;101690.03;;;0.40;100.00
45541;BME280;31265;49.680;8.608;2022-11-27T05:57:23;101689.09;;;0.43;100.00
45541;BME280;31265;49.680;8.608;2022-11-27T05:59:52;101683.00;;;0.49;100.00
45541;BME280;31265;49.680;8.608;2022-11-27T06:02:23;101685.59;;;0.52;100.00
45541;BME280;31265;49.680;8.608;2022-11-27T06:04:55;101674.50;;;0.56;100.00
45541;BME280;31265;49.680;8.608;2022-11-27T06:07:25;101680.09;;;0.61;100.00
45541;BME280;31265;49.680;8.608;2022-11-27T06:09:56;101673.44;;;0.62;100.00
45541;BME280;31265;49.680;8.608;2022-11-27T06:12:30;101663.56;;;0.56;100.00
45541;BME280;31265;49.680;8.608;2022-11-27T06:14:59;101656.00;;;0.60;100.00
45541;BME280;31265;49.680;8.608;2022-11-27T06:17:28;101671.75;;;0.65;100.00
45541;BME280;31265;49.680;8.608;2022-11-27T06:20:07;101684.19;;;0.66;100.00
45541;BME280;31265;49.680;8.608;2022-11-27T06:22:37;101672.81;;;0.58;100.00
45541;BME280;31265;49.680;8.608;2022-11-27T06:25:08;101679.19;;;0.64;100.00
45541;BME280;31265;49.680;8.608;2022-11-27T06:27:36;101683.25;;;0.69;100.00
45541;BME280;31265;49.680;8.608;2022-11-27T06:30:06;101690.41;;;0.67;100.00
45541;BME280;31265;49.680;8.608;2022-11-27T06:32:34;101681.94;;;0.64;100.00
45541;BME280;31265;49.680;8.608;2022-11-27T06:35:05;101676.28;;;0.68;100.00
45541;BME280;31265;49.680;8.608;2022-11-27T06:37:34;101670.81;;;0.68;100.00
45541;BME280;31265;49.680;8.608;2022-11-27T06:40:06;101655.34;;;0.65;100.00
45541;BME280;31265;49.680;8.608;2022-11-27T06:42:35;101652.63;;;0.65;100.00
45541;BME280;31265;49.680;8.608;2022-11-27T06:45:04;101650.19;;;0.67;100.00
45541;BME280;31265;49.680;8.608;2022-11-27T06:47:35;101644.06;;;0.81;100.00
45541;BME280;31265;49.680;8.608;2022-11-27T06:50:07;101647.25;;;0.80;100.00
45541;BME280;31265;49.680;8.608;2022-11-27T06:52:35;101640.25;;;0.79;100.00
45541;BME280;31265;49.680;8.608;2022-11-27T06:55:08;101630.22;;;0.85;100.00
45541;BME280;31265;49.680;8.608;2022-11-27T06:57:38;101642.38;;;0.84;100.00
45541;BME280;31265;49.680;8.608;2022-11-27T07:00:13;101643.41;;;0.86;100.00
45541;BME280;31265;49.680;8.608;2022-11-27T07:02:44;101633.09;;;0.91;100.00
45541;BME280;31265;49.680;8.608;2022-11-27T07:05:13;101628.53;;;0.97;100.00
45541;BME280;31265;49.680;8.608;2022-11-27T07:07:42;101630.63;;;1.02;100.00
45541;BME280;31265;49.680;8.608;2022-11-27T07:10:13;101640.91;;;1.07;100.00
45541;BME280;31265;49.680;8.608;2022-11-27T07:12:42;101636.00;;;1.11;100.00
45541;BME280;31265;49.680;8.608;2022-11-27T07:15:17;101628.84;;;1.14;100.00
45541;BME280;31265;49.680;8.608;2022-11-27T07:17:46;101614.78;;;1.06;100.00
45541;BME280;31265;49.680;8.608;2022-11-27T07:20:18;101630.28;;;1.09;100.00
45541;BME280;31265;49.680;8.608;2022-11-27T07:22:49;101624.16;;;1.14;100.00
45541;BME280;31265;49.680;8.608;2022-11-27T07:25:19;101623.16;;;1.02;100.00
45541;BME280;31265;49.680;8.608;2022-11-27T07:27:49;101614.50;;;1.04;100.00
45541;BME280;31265;49.680;8.608;2022-11-27T07:30:18;101608.91;;;0.98;100.00
45541;BME280;31265;49.680;8.608;2022-11-27T07:32:48;101599.66;;;0.96;100.00
45541;BME280;31265;49.680;8.608;2022-11-27T07:35:17;101603.78;;;0.91;100.00
45541;BME280;31265;49.680;8.608;2022-11-27T07:37:46;101611.88;;;1.10;100.00
45541;BME280;31265;49.680;8.608;2022-11-27T07:40:20;101612.59;;;1.19;100.00
45541;BME280;31265;49.680;8.608;2022-11-27T07:42:49;101613.63;;;1.22;100.00
45541;BME280;31265;49.680;8.608;2022-11-27T07:45:17;101615.84;;;1.33;100.00
45541;BME280;31265;49.680;8.608;2022-11-27T07:47:47;101622.19;;;1.39;100.00
45541;BME280;31265;49.680;8.608;2022-11-27T07:50:15;101614.16;;;1.35;100.00
45541;BME280;31265;49.680;8.608;2022-11-27T07:52:44;101615.94;;;1.38;100.00
45541;BME280;31265;49.680;8.608;2022-11-27T07:55:13;101611.09;;;1.57;100.00
45541;BME280;31265;49.680;8.608;2022-11-27T07:57:42;101611.66;;;1.46;100.00
45541;BME280;31265;49.680;8.608;2022-11-27T08:00:12;101606.63;;;1.69;100.00
45541;BME280;31265;49.680;8.608;2022-11-27T08:02:41;101627.28;;;1.70;100.00
45541;BME280;31265;49.680;8.608;2022-11-27T08:05:10;101622.00;;;1.66;100.00
45541;BME280;31265;49.680;8.608;2022-11-27T08:07:39;101614.72;;;1.63;100.00
45541;BME280;31265;49.680;8.608;2022-11-27T08:10:19;101615.34;;;1.58;100.00
45541;BME280;31265;49.680;8.608;2022-11-27T08:12:51;101612.06;;;1.54;100.00
45541;BME280;31265;49.680;8.608;2022-11-27T08:15:20;101600.31;;;1.39;100.00
45541;BME280;31265;49.680;8.608;2022-11-27T08:17:49;101584.59;;;1.48;100.00
45541;BME280;31265;49.680;8.608;2022-11-27T08:20:18;101580.53;;;1.44;100.00
45541;BME280;31265;49.680;8.608;2022-11-27T08:22:47;101580.28;;;1.33;100.00
45541;BME280;31265;49.680;8.608;2022-11-27T08:25:19;101574.69;;;1.51;100.00
45541;BME280;31265;49.680;8.608;2022-11-27T08:27:47;101561.47;;;1.49;100.00
45541;BME280;31265;49.680;8.608;2022-11-27T08:30:19;101555.63;;;1.57;100.00
45541;BME280;31265;49.680;8.608;2022-11-27T08:32:49;101549.50;;;1.47;100.00
45541;BME280;31265;49.680;8.608;2022-11-27T08:35:18;101553.38;;;1.55;100.00
45541;BME280;31265;49.680;8.608;2022-11-27T08:37:49;101545.91;;;1.70;100.00
45541;BME280;31265;49.680;8.608;2022-11-27T08:40:17;101537.91;;;1.82;100.00
45541;BME280;31265;49.680;8.608;2022-11-27T08:42:46;101535.25;;;1.72;100.00
45541;BME280;31265;49.680;8.608;2022-11-27T08:45:15;101536.97;;;1.85;100.00
45541;BME280;31265;49.680;8.608;2022-11-27T08:47:46;101542.38;;;1.94;100.00
45541;BME280;31265;49.680;8.608;2022-11-27T08:50:17;101536.59;;;1.77;100.00
45541;BME280;31265;49.680;8.608;2022-11-27T08:52:47;101543.03;;;2.04;100.00
45541;BME280;31265;49.680;8.608;2022-11-27T08:55:17;101562.75;;;1.93;100.00
45541;BME280;31265;49.680;8.608;2022-11-27T08:57:48;101576.03;;;1.85;100.00
45541;BME280;31265;49.680;8.608;2022-11-27T09:00:20;101565.06;;;1.70;100.00
45541;BME280;31265;49.680;8.608;2022-11-27T09:02:55;101566.03;;;1.82;100.00
45541;BME280;31265;49.680;8.608;2022-11-27T09:05:27;101575.50;;;1.96;100.00
45541;BME280;31265;49.680;8.608;2022-11-27T09:07:56;101566.44;;;2.05;100.00
45541;BME280;31265;49.680;8.608;2022-11-27T09:10:25;101555.56;;;2.40;100.00
45541;BME280;31265;49.680;8.608;2022-11-27T09:12:54;101550.47;;;2.33;100.00
45541;BME280;31265;49.680;8.608;2022-11-27T09:15:25;101543.75;;;2.19;100.00
45541;BME280;31265;49.680;8.608;2022-11-27T09:17:55;101536.59;;;2.22;100.00
45541;BME280;31265;49.680;8.608;2022-11-27T09:20:23;101540.72;;;2.32;100.00
45541;BME280;31265;49.680;8.608;2022-11-27T09:22:52;101530.81;;;2.20;100.00
45541;BME280;31265;49.680;8.608;2022-11-27T09:25:20;101525.97;;;2.29;100.00
45541;BME280;31265;49.680;8.608;2022-11-27T09:27:49;101524.00;;;2.30;100.00
45541;BME280;31265;49.680;8.608;2022-11-27T09:30:17;101517.47;;;2.27;100.00
45541;BME280;31265;49.680;8.608;2022-11-27T09:32:47;101519.13;;;2.19;100.00
45541;BME280;31265;49.680;8.608;2022-11-27T09:35:18;101520.44;;;2.24;100.00
45541;BME280;31265;49.680;8.608;2022-11-27T09:37:47;101530.63;;;2.38;100.00
45541;BME280;31265;49.680;8.608;2022-11-27T09:40:16;101530.31;;;2.36;100.00
45541;BME280;31265;49.680;8.608;2022-11-27T09:42:52;101528.69;;;2.44;100.00
45541;BME280;31265;49.680;8.608;2022-11-27T09:45:25;101534.50;;;2.31;100.00
45541;BME280;31265;49.680;8.608;2022-11-27T09:47:57;101528.41;;;2.42;100.00
45541;BME280;31265;49.680;8.608;2022-11-27T09:50:34;101531.56;;;2.35;100.00
45541;BME280;31265;49.680;8.608;2022-11-27T09:53:15;101525.88;;;2.39;100.00
45541;BME280;31265;49.680;8.608;2022-11-27T09:55:48;101526.66;;;2.59;100.00
45541;BME280;31265;49.680;8.608;2022-11-27T09:58:19;101516.72;;;2.77;100.00
45541;BME280;31265;49.680;8.608;2022-11-27T10:00:48;101508.47;;;2.97;100.00
45541;BME280;31265;49.680;8.608;2022-11-27T10:03:24;101495.81;;;3.00;100.00
45541;BME280;31265;49.680;8.608;2022-11-27T10:06:02;101487.44;;;3.09;100.00
45541;BME280;31265;49.680;8.608;2022-11-27T10:08:41;101489.88;;;3.28;100.00
45541;BME280;31265;49.680;8.608;2022-11-27T10:11:23;101485.69;;;3.32;100.00
45541;BME280;31265;49.680;8.608;2022-11-27T10:14:04;101476.81;;;3.43;100.00
45541;BME280;31265;49.680;8.608;2022-11-27T10:16:41;101476.47;;;3.35;100.00
45541;BME280;31265;49.680;8.608;2022-11-27T10:19:24;101468.19;;;3.56;100.00
45541;BME280;31265;49.680;8.608;2022-11-27T10:21:58;101462.81;;;3.67;100.00
45541;BME280;31265;49.680;8.608;2022-11-27T10:24:33;101451.72;;;3.56;100.00
45541;BME280;31265;49.680;8.608;2022-11-27T10:27:12;101456.06;;;3.68;100.00
45541;BME280;31265;49.680;8.608;2022-11-27T10:29:46;101451.34;;;3.69;100.00
45541;BME280;31265;49.680;8.608;2022-11-27T10:32:23;101446.03;;;3.59;100.00
45541;BME280;31265;49.680;8.608;2022-11-27T10:35:16;101435.34;;;3.67;100.00
45541;BME280;31265;49.680;8.608;2022-11-27T10:37:51;101425.22;;;3.79;100.00
45541;BME280;31265;49.680;8.608;2022-11-27T10:40:24;101417.59;;;3.94;100.00
45541;BME280;31265;49.680;8.608;2022-11-27T10:42:59;101410.34;;;3.97;100.00
45541;BME280;31265;49.680;8.608;2022-11-27T10:45:38;101407.75;;;4.19;100.00
45541;BME280;31265;49.680;8.608;2022-11-27T10:48:12;101400.59;;;4.33;100.00
45541;BME280;31265;49.680;8.608;2022-11-27T10:50:44;101393.38;;;4.47;100.00
45541;BME280;31265;49.680;8.608;2022-11-27T10:53:24;101390.16;;;4.54;100.00
45541;BME280;31265;49.680;8.608;2022-11-27T10:56:15;101396.38;;;4.38;100.00
45541;BME280;31265;49.680;8.608;2022-11-27T10:58:53;101397.00;;;4.76;100.00
45541;BME280;31265;49.680;8.608;2022-11-27T11:01:27;101387.69;;;4.56;100.00
45541;BME280;31265;49.680;8.608;2022-11-27T11:04:05;101376.63;;;4.45;100.00
45541;BME280;31265;49.680;8.608;2022-11-27T11:06:55;101379.53;;;4.24;100.00
45541;BME280;31265;49.680;8.608;2022-11-27T11:09:29;101376.03;;;4.18;100.00
45541;BME280;31265;49.680;8.608;2022-11-27T11:12:05;101375.97;;;4.07;100.00
45541;BME280;31265;49.680;8.608;2022-11-27T11:14:36;101359.72;;;4.03;100.00
45541;BME280;31265;49.680;8.608;2022-11-27T11:17:14;101354.72;;;4.02;100.00
45541;BME280;31265;49.680;8.608;2022-11-27T11:19:43;101341.50;;;4.06;100.00
45541;BME280;31265;49.680;8.608;2022-11-27T11:22:16;101340.22;;;4.01;100.00
45541;BME280;31265;49.680;8.608;2022-11-27T11:24:49;101334.50;;;4.05;100.00
45541;BME280;31265;49.680;8.608;2022-11-27T11:27:25;101330.00;;;4.02;100.00
45541;BME280;31265;49.680;8.608;2022-11-27T11:29:57;101333.78;;;4.10;100.00
45541;BME280;31265;49.680;8.608;2022-11-27T11:32:30;101333.56;;;4.19;100.00
45541;BME280;31265;49.680;8.608;2022-11-27T11:35:02;101327.59;;;4.26;100.00
45541;BME280;31265;49.680;8.608;2022-11-27T11:37:33;101324.66;;;4.47;100.00
45541;BME280;31265;49.680;8.608;2022-11-27T11:40:19;101321.19;;;4.52;100.00
45541;BME280;31265;49.680;8.608;2022-11-27T11:42:52;101315.69;;;4.52;100.00
45541;BME280;31265;49.680;8.608;2022-11-27T11:45:32;101312.72;;;4.61;100.00
45541;BME280;31265;49.680;8.608;2022-11-27T11:48:19;101311.72;;;4.64;100.00
45541;BME280;31265;49.680;8.608;2022-11-27T11:50:52;101308.78;;;4.96;100.00
45541;BME280;31265;49.680;8.608;2022-11-27T11:53:31;101301.53;;;4.99;100.00
45541;BME280;31265;49.680;8.608;2022-11-27T11:56:11;101301.25;;;4.80;100.00
45541;BME280;31265;49.680;8.608;2022-11-27T11:58:52;101303.50;;;4.76;100.00
45541;BME280;31265;49.680;8.608;2022-11-27T12:01:34;101301.50;;;4.76;100.00
45541;BME280;31265;49.680;8.608;2022-11-27T12:04:17;101304.28;;;4.87;100.00
45541;BME280;31265;49.680;8.608;2022-11-27T12:06:55;101304.72;;;4.58;100.00
45541;BME280;31265;49.680;8.608;2022-11-27T12:09:42;101295.75;;;4.63;100.00
45541;BME280;31265;49.680;8.608;2022-11-27T12:12:25;101305.47;;;4.64;100.00
45541;BME280;31265;49.680;8.608;2022-11-27T12:15:02;101288.47;;;4.48;100.00
45541;BME280;31265;49.680;8.608;2022-11-27T12:17:46;101284.38;;;4.21;100.00
45541;BME280;31265;49.680;8.608;2022-11-27T12:20:29;101288.13;;;4.18;100.00
45541;BME280;31265;49.680;8.608;2022-11-27T12:23:31;101268.59;;;4.05;100.00
45541;BME280;31265;49.680;8.608;2022-11-27T12:26:12;101265.16;;;4.32;100.00
45541;BME280;31265;49.680;8.608;2022-11-27T12:32:20;101251.97;;;4.48;100.00
45541;BME280;31265;49.680;8.608;2022-11-27T12:35:16;101254.75;;;4.70;100.00
45541;BME280;31265;49.680;8.608;2022-11-27T12:37:59;101249.75;;;5.20;100.00
45541;BME280;31265;49.680;8.608;2022-11-27T12:40:42;101243.75;;;5.27;100.00
45541;BME280;31265;49.680;8.608;2022-11-27T12:43:22;101243.25;;;5.23;100.00
45541;BME280;31265;49.680;8.608;2022-11-27T12:45:57;101230.22;;;5.29;100.00
45541;BME280;31265;49.680;8.608;2022-11-27T12:48:34;101235.97;;;5.31;100.00
45541;BME280;31265;49.680;8.608;2022-11-27T12:51:07;101225.19;;;5.44;100.00
45541;BME280;31265;49.680;8.608;2022-11-27T12:53:41;101224.69;;;5.40;100.00
45541;BME280;31265;49.680;8.608;2022-11-27T12:56:14;101224.44;;;5.38;100.00
45541;BME280;31265;49.680;8.608;2022-11-27T12:58:52;101220.41;;;5.50;100.00
45541;BME280;31265;49.680;8.608;2022-11-27T13:01:26;101215.88;;;5.64;100.00
45541;BME280;31265;49.680;8.608;2022-11-27T13:04:05;101213.91;;;5.59;100.00
45541;BME280;31265;49.680;8.608;2022-11-27T13:06:48;101202.75;;;5.98;100.00
45541;BME280;31265;49.680;8.608;2022-11-27T13:09:29;101213.06;;;5.75;100.00
45541;BME280;31265;49.680;8.608;2022-11-27T13:12:02;101202.13;;;5.64;100.00
45541;BME280;31265;49.680;8.608;2022-11-27T13:14:36;101201.81;;;5.79;100.00
45541;BME280;31265;49.680;8.608;2022-11-27T13:17:10;101202.88;;;5.59;100.00
45541;BME280;31265;49.680;8.608;2022-11-27T13:19:50;101196.19;;;5.37;100.00
45541;BME280;31265;49.680;8.608;2022-11-27T13:22:27;101207.97;;;5.27;100.00
45541;BME280;31265;49.680;8.608;2022-11-27T13:25:01;101202.25;;;5.08;100.00